createdAt,value
2019-04-11T00:01:18.267Z,53.23
2019-04-11T00:03:51.435Z,54.30
2019-04-11T00:06:24.084Z,52.52
2019-04-11T00:08:56.727Z,52.58
2019-04-11T00:11:30.200Z,52.59
2019-04-11T00:14:03.241Z,52.48
2019-04-11T00:16:36.038Z,52.94
2019-04-11T00:19:09.419Z,52.58
2019-04-11T00:21:41.906Z,53.10
2019-04-11T00:24:14.509Z,52.80
2019-04-11T00:26:48.620Z,52.59
2019-04-11T00:29:21.148Z,52.72
2019-04-11T00:31:54.878Z,52.74
2019-04-11T00:34:27.506Z,52.81
2019-04-11T00:37:00.992Z,53.05
2019-04-11T00:39:33.539Z,52.42
2019-04-11T00:42:06.243Z,52.73
2019-04-11T00:44:38.961Z,53.18
2019-04-11T00:47:11.757Z,52.59
2019-04-11T00:49:44.296Z,52.73
2019-04-11T00:52:17.066Z,52.71
2019-04-11T00:54:49.626Z,53.07
2019-04-11T00:57:23.049Z,52.95
2019-04-11T00:59:56.473Z,52.76
2019-04-11T01:02:30.087Z,53.38
2019-04-11T01:05:03.557Z,53.25
2019-04-11T01:07:36.168Z,53.30
2019-04-11T01:10:09.801Z,53.50
2019-04-11T01:12:42.932Z,53.36
2019-04-11T01:15:17.522Z,53.35
2019-04-11T01:17:51.675Z,53.19
2019-04-11T01:20:24.256Z,53.15
2019-04-11T01:22:56.706Z,54.21
2019-04-11T01:25:29.237Z,53.47
2019-04-11T01:28:02.616Z,53.51
2019-04-11T01:30:40.909Z,53.72
2019-04-11T01:33:13.526Z,53.58
2019-04-11T01:35:46.006Z,53.50
2019-04-11T01:38:21.371Z,53.83
2019-04-11T01:40:54.062Z,53.79
2019-04-11T01:43:26.587Z,53.72
2019-04-11T01:46:00.061Z,53.79
2019-04-11T01:48:42.376Z,53.94
2019-04-11T01:51:15.791Z,54.33
2019-04-11T01:53:48.925Z,53.98
2019-04-11T01:56:23.202Z,54.00
2019-04-11T01:58:55.697Z,54.35
2019-04-11T02:01:36.916Z,54.19
2019-04-11T02:04:17.497Z,54.72
2019-04-11T02:06:50.009Z,57.03
2019-04-11T02:09:22.456Z,54.05
2019-04-11T02:11:56.080Z,53.85
2019-04-11T02:14:28.756Z,53.91
2019-04-11T02:17:01.311Z,54.63
2019-04-11T02:19:34.457Z,54.18
2019-04-11T02:22:24.432Z,54.34
2019-04-11T02:25:06.058Z,54.92
2019-04-11T02:27:40.203Z,54.03
2019-04-11T02:30:14.196Z,55.01
2019-04-11T02:32:47.971Z,54.26
2019-04-11T02:35:22.698Z,54.41
2019-04-11T02:37:57.026Z,54.61
2019-04-11T02:40:32.305Z,54.38
2019-04-11T02:43:05.529Z,54.97
2019-04-11T02:45:51.679Z,55.07
2019-04-11T02:48:13.823Z,54.92
2019-04-11T02:50:47.912Z,55.07
2019-04-11T02:53:21.250Z,54.88
2019-04-11T02:55:56.419Z,54.99
2019-04-11T02:58:30.261Z,55.11
2019-04-11T03:01:05.275Z,55.08
2019-04-11T03:03:37.849Z,55.24
2019-04-11T03:06:11.716Z,55.13
2019-04-11T03:08:44.552Z,55.12
2019-04-11T03:11:19.138Z,55.39
2019-04-11T03:13:54.834Z,55.02
2019-04-11T03:16:42.958Z,55.42
2019-04-11T03:19:18.384Z,55.20
2019-04-11T03:21:39.165Z,55.24
2019-04-11T03:24:11.053Z,55.16
2019-04-11T03:26:45.562Z,55.14
2019-04-11T03:29:19.762Z,55.37
2019-04-11T03:39:57.002Z,55.33
2019-04-11T03:42:28.523Z,55.37
2019-04-11T03:44:50.199Z,55.20
2019-04-11T03:47:31.861Z,55.25
2019-04-11T03:50:00.389Z,55.47
2019-04-11T03:52:28.419Z,55.23
2019-04-11T03:55:03.740Z,55.29
2019-04-11T03:57:36.930Z,55.36
2019-04-11T04:00:14.265Z,55.56
2019-04-11T04:02:46.754Z,55.58
2019-04-11T04:05:21.510Z,55.70
2019-04-11T04:07:55.290Z,55.89
2019-04-11T04:10:29.647Z,56.30
2019-04-11T04:13:03.324Z,56.52
2019-04-11T04:16:08.188Z,55.85
2019-04-11T04:18:49.426Z,55.91
2019-04-11T04:21:38.583Z,57.10
2019-04-11T04:24:32.223Z,56.03
2019-04-11T04:27:04.710Z,55.95
2019-04-11T04:29:38.121Z,56.02
2019-04-11T04:32:12.129Z,56.09
2019-04-11T04:34:46.368Z,55.98
2019-04-11T04:37:21.391Z,55.99
2019-04-11T04:40:13.497Z,55.92
2019-04-11T04:42:35.894Z,56.31
2019-04-11T04:45:04.853Z,56.35
2019-04-11T04:47:44.184Z,56.37
2019-04-11T04:50:13.423Z,56.46
2019-04-11T04:52:46.048Z,55.89
2019-04-11T04:55:19.497Z,56.32
2019-04-11T04:57:53.223Z,56.00
2019-04-11T05:00:28.047Z,55.98
2019-04-11T05:03:02.225Z,55.70
2019-04-11T05:05:35.777Z,56.30
2019-04-11T05:08:10.480Z,55.44
2019-04-11T05:10:43.163Z,55.34
2019-04-11T05:13:17.041Z,55.38
2019-04-11T05:16:03.815Z,55.69
2019-04-11T05:18:23.775Z,55.40
2019-04-11T05:20:57.010Z,55.42
2019-04-11T05:23:29.778Z,55.23
2019-04-11T05:26:03.509Z,55.29
2019-04-11T05:28:35.925Z,55.25
2019-04-11T05:31:08.516Z,55.19
2019-04-11T05:33:40.976Z,55.31
2019-04-11T05:36:14.364Z,55.11
2019-04-11T05:38:48.659Z,55.03
2019-04-11T05:41:23.049Z,54.72
2019-04-11T05:44:00.769Z,54.60
2019-04-11T05:46:35.302Z,54.74
2019-04-11T05:49:09.655Z,54.20
2019-04-11T05:51:47.072Z,55.67
2019-04-11T05:54:18.392Z,53.80
2019-04-11T05:56:59.149Z,53.57
2019-04-11T05:59:31.024Z,54.28
2019-04-11T06:02:10.998Z,54.00
2019-04-11T06:04:51.770Z,53.54
2019-04-11T06:07:43.571Z,53.58
2019-04-11T06:10:18.465Z,53.29
2019-04-11T06:13:05.797Z,53.63
2019-04-11T06:15:43.657Z,53.16
2019-04-11T06:18:33.063Z,53.17
2019-04-11T06:21:16.246Z,53.14
2019-04-11T06:24:14.203Z,53.41
2019-04-11T06:26:52.675Z,52.98
2019-04-11T06:29:53.009Z,52.72
2019-04-11T06:32:43.678Z,53.12
2019-04-11T06:35:35.856Z,52.95
2019-04-11T06:38:27.406Z,52.67
2019-04-11T06:41:12.495Z,52.52
2019-04-11T06:43:58.513Z,52.84
2019-04-11T06:47:02.653Z,52.12
2019-04-11T06:49:56.606Z,52.12
2019-04-11T06:52:29.206Z,51.71
2019-04-11T06:55:15.866Z,52.25
2019-04-11T06:57:49.794Z,51.89
2019-04-11T07:00:23.146Z,52.00
2019-04-11T07:02:59.279Z,51.43
2019-04-11T07:05:35.158Z,52.50
2019-04-11T07:08:07.799Z,51.79
2019-04-11T07:10:46.767Z,51.80
2019-04-11T07:13:24.862Z,51.85
2019-04-11T07:15:58.198Z,51.88
2019-04-11T07:18:39.970Z,52.00
2019-04-11T07:21:13.281Z,51.88
2019-04-11T07:24:03.360Z,51.87
2019-04-11T07:26:48.246Z,51.81
2019-04-11T07:29:54.805Z,52.01
2019-04-11T07:32:29.757Z,51.57
2019-04-11T07:35:19.696Z,51.64
2019-04-11T07:37:55.381Z,51.67
2019-04-11T07:40:45.457Z,51.62
2019-04-11T07:43:45.896Z,51.44
2019-04-11T07:46:47.305Z,50.93
2019-04-11T07:49:24.482Z,50.87
2019-04-11T07:52:00.321Z,50.68
2019-04-11T07:54:34.689Z,50.51
2019-04-11T07:57:17.731Z,50.90
2019-04-11T08:00:08.142Z,50.52
2019-04-11T08:03:04.176Z,50.50
2019-04-11T08:06:05.211Z,50.28
2019-04-11T08:08:47.722Z,49.96
2019-04-11T08:11:45.116Z,48.74
2019-04-11T08:14:45.615Z,48.30
2019-04-11T08:17:30.920Z,47.63
2019-04-11T08:20:13.213Z,47.43
2019-04-11T08:22:49.616Z,47.19
2019-04-11T08:25:57.795Z,47.47
2019-04-11T08:28:31.011Z,46.92
2019-04-11T08:31:28.778Z,46.79
2019-04-11T08:34:04.916Z,47.21
2019-04-11T08:36:55.407Z,46.96
2019-04-11T08:39:33.020Z,46.82
2019-04-11T08:42:31.714Z,47.22
2019-04-11T08:45:06.038Z,47.38
2019-04-11T08:50:28.896Z,47.26
2019-04-11T08:53:18.751Z,46.89
2019-04-11T08:56:00.502Z,46.76
2019-04-11T08:58:47.047Z,46.39
2019-04-11T09:01:20.345Z,46.10
2019-04-11T09:04:10.199Z,45.91
2019-04-11T09:06:42.914Z,45.46
2019-04-11T09:09:47.515Z,45.12
2019-04-11T09:12:20.567Z,45.06
2019-04-11T09:15:19.095Z,45.35
2019-04-11T09:18:05.727Z,44.78
2019-04-11T09:20:51.799Z,44.65
2019-04-11T09:23:25.929Z,44.14
2019-04-11T09:26:32.104Z,42.90
2019-04-11T09:29:05.991Z,43.95
2019-04-11T09:31:58.209Z,43.65
2019-04-11T09:34:35.680Z,43.15
2019-04-11T09:37:25.668Z,43.54
2019-04-11T09:40:23.936Z,42.95
2019-04-11T09:43:17.887Z,43.48
2019-04-11T09:46:08.187Z,43.40
2019-04-11T09:49:08.835Z,40.80
2019-04-11T09:52:08.903Z,43.06
2019-04-11T09:54:58.872Z,43.04
2019-04-11T09:57:37.035Z,42.46
2019-04-11T10:00:20.702Z,42.14
2019-04-11T10:02:58.656Z,41.56
2019-04-11T10:05:49.918Z,41.47
2019-04-11T10:08:57.602Z,41.98
2019-04-11T10:11:55.339Z,41.52
2019-04-11T10:14:29.656Z,40.80
2019-04-11T10:17:22.645Z,40.75
2019-04-11T10:19:56.959Z,41.67
2019-04-11T10:22:49.298Z,41.43
2019-04-11T10:25:31.975Z,41.24
2019-04-11T10:28:22.306Z,40.55
2019-04-11T10:31:14.797Z,38.32
2019-04-11T10:34:06.128Z,41.32
2019-04-11T10:36:43.238Z,39.83
2019-04-11T10:39:33.905Z,40.41
2019-04-11T10:42:10.430Z,40.03
2019-04-11T10:45:02.733Z,40.24
2019-04-11T10:47:36.626Z,39.79
2019-04-11T10:50:28.450Z,39.32
2019-04-11T10:53:03.069Z,39.06
2019-04-11T10:56:10.616Z,39.01
2019-04-11T10:58:46.268Z,39.08
2019-04-11T11:01:48.510Z,37.60
2019-04-11T11:04:30.516Z,37.13
2019-04-11T11:07:06.646Z,37.08
2019-04-11T11:09:54.573Z,36.58
2019-04-11T11:12:49.629Z,35.47
2019-04-11T11:15:41.898Z,37.36
2019-04-11T11:18:54.002Z,37.80
2019-04-11T11:21:09.458Z,37.74
2019-04-11T11:23:59.175Z,37.98
2019-04-11T11:26:36.136Z,38.44
2019-04-11T11:29:40.153Z,38.40
2019-04-11T11:32:33.659Z,38.25
2019-04-11T11:35:28.354Z,36.86
2019-04-11T11:38:09.636Z,37.42
2019-04-11T11:41:16.350Z,34.68
2019-04-11T11:43:50.166Z,37.64
2019-04-11T11:46:36.341Z,37.45
2019-04-11T11:49:42.351Z,36.10
2019-04-11T11:52:19.816Z,37.47
2019-04-11T11:54:55.637Z,37.40
2019-04-11T11:57:53.326Z,36.57
2019-04-11T12:00:30.145Z,35.58
2019-04-11T12:03:25.194Z,36.25
2019-04-11T12:06:00.794Z,34.52
2019-04-11T12:08:48.261Z,31.66
2019-04-11T12:11:22.004Z,31.68
2019-04-11T12:14:15.797Z,31.16
2019-04-11T12:17:06.774Z,32.05
2019-04-11T12:20:01.273Z,33.34
2019-04-11T12:22:28.872Z,34.62
2019-04-11T12:25:20.984Z,35.02
2019-04-11T12:28:14.940Z,35.20
2019-04-11T12:30:53.073Z,33.38
2019-04-11T12:33:57.708Z,35.00
2019-04-11T12:36:34.811Z,35.02
2019-04-11T12:39:24.339Z,35.65
2019-04-11T12:42:17.412Z,35.42
2019-04-11T12:45:07.128Z,33.05
2019-04-11T12:47:49.413Z,31.28
2019-04-11T12:50:42.198Z,30.40
2019-04-11T12:53:26.118Z,31.98
2019-04-11T12:56:23.370Z,31.95
2019-04-11T12:58:59.884Z,33.29
2019-04-11T13:01:51.281Z,33.48
2019-04-11T13:04:30.224Z,32.80
2019-04-11T13:07:21.595Z,32.30
2019-04-11T13:10:03.152Z,33.34
2019-04-11T13:13:06.815Z,32.59
2019-04-11T13:15:42.146Z,34.09
2019-04-11T13:18:27.558Z,33.77
2019-04-11T13:21:05.505Z,33.73
2019-04-11T13:24:11.931Z,32.17
2019-04-11T13:27:01.765Z,29.32
2019-04-11T13:29:59.265Z,32.01
2019-04-11T13:32:49.695Z,33.42
2019-04-11T13:35:41.436Z,34.00
2019-04-11T13:38:34.546Z,34.65
2019-04-11T13:41:15.136Z,34.21
2019-04-11T13:43:56.516Z,34.48
2019-04-11T13:46:47.777Z,35.13
2019-04-11T13:49:43.217Z,34.55
2019-04-11T13:52:34.799Z,34.86
2019-04-11T13:55:16.915Z,35.21
2019-04-11T13:58:08.291Z,34.07
2019-04-11T14:00:54.089Z,34.96
2019-04-11T14:03:48.739Z,35.84
2019-04-11T14:06:29.236Z,35.72
2019-04-11T14:09:20.745Z,35.50
2019-04-11T14:11:55.226Z,34.58
2019-04-11T14:14:51.861Z,35.70
2019-04-11T14:17:48.486Z,34.99
2019-04-11T14:20:30.785Z,34.97
2019-04-11T14:23:25.087Z,33.40
2019-04-11T14:26:36.346Z,32.16
2019-04-11T14:29:30.276Z,32.96
2019-04-11T14:32:24.227Z,33.80
2019-04-11T14:35:15.176Z,34.38
2019-04-11T14:37:51.215Z,34.79
2019-04-11T14:41:01.161Z,35.15
2019-04-11T14:43:38.085Z,35.52
2019-04-11T14:46:27.582Z,35.86
2019-04-11T14:49:05.774Z,35.60
2019-04-11T14:51:58.540Z,35.96
2019-04-11T14:54:51.444Z,36.13
2019-04-11T14:57:46.720Z,35.02
2019-04-11T15:00:27.869Z,33.37
2019-04-11T15:03:25.406Z,36.79
2019-04-11T15:06:02.365Z,36.56
2019-04-11T15:08:53.632Z,36.76
2019-04-11T15:11:49.186Z,36.60
2019-04-11T15:14:49.500Z,36.64
2019-04-11T15:17:45.465Z,36.16
2019-04-11T15:20:55.333Z,36.66
2019-04-11T15:23:47.734Z,36.83
2019-04-11T15:26:41.106Z,37.29
2019-04-11T15:29:38.569Z,36.90
2019-04-11T15:32:34.796Z,35.71
2019-04-11T15:35:10.783Z,35.61
2019-04-11T15:38:00.606Z,35.74
2019-04-11T15:40:39.115Z,35.33
2019-04-11T15:43:30.962Z,35.54
2019-04-11T15:46:07.556Z,35.09
2019-04-11T15:48:59.036Z,33.59
2019-04-11T15:51:46.326Z,35.85
2019-04-11T15:54:43.776Z,36.13
2019-04-11T15:57:43.009Z,36.61
2019-04-11T16:00:32.836Z,36.96
2019-04-11T16:03:10.086Z,36.99
2019-04-11T16:06:02.282Z,37.33
2019-04-11T16:08:43.265Z,37.32
2019-04-11T16:11:41.688Z,37.00
2019-04-11T16:14:48.100Z,37.38
2019-04-11T16:17:39.391Z,37.12
2019-04-11T16:20:18.140Z,36.93
2019-04-11T16:23:16.126Z,36.72
2019-04-11T16:25:53.720Z,36.65
2019-04-11T16:28:53.435Z,36.72
2019-04-11T16:31:30.803Z,36.74
2019-04-11T16:34:31.496Z,36.65
2019-04-11T16:37:06.125Z,37.07
2019-04-11T16:39:56.036Z,37.27
2019-04-11T16:42:35.116Z,37.40
2019-04-11T16:45:39.425Z,37.50
2019-04-11T16:48:11.996Z,37.67
2019-04-11T16:50:44.795Z,38.39
2019-04-11T16:53:17.256Z,38.82
2019-04-11T16:55:49.891Z,38.29
2019-04-11T16:58:22.486Z,39.49
2019-04-11T17:00:55.026Z,39.56
2019-04-11T17:03:27.509Z,39.46
2019-04-11T17:06:07.175Z,39.71
2019-04-11T17:08:51.622Z,39.99
2019-04-11T17:11:26.687Z,40.18
2019-04-11T17:13:58.840Z,40.31
2019-04-11T17:16:32.918Z,40.42
2019-04-11T17:19:06.277Z,40.73
2019-04-11T17:21:43.462Z,40.72
2019-04-11T17:24:16.726Z,40.86
2019-04-11T17:26:52.397Z,41.11
2019-04-11T17:29:24.928Z,41.37
2019-04-11T17:31:57.975Z,41.62
2019-04-11T17:34:32.324Z,41.85
2019-04-11T17:37:05.995Z,41.85
2019-04-11T17:39:38.754Z,42.00
2019-04-11T17:42:13.359Z,42.10
2019-04-11T17:44:46.419Z,42.37
2019-04-11T17:47:19.026Z,42.42
2019-04-11T17:49:54.595Z,42.78
2019-04-11T17:52:27.585Z,43.10
2019-04-11T17:55:00.884Z,42.88
2019-04-11T17:57:33.386Z,43.00
2019-04-11T18:00:08.495Z,42.92
2019-04-11T18:02:42.445Z,43.27
2019-04-11T18:05:17.109Z,42.97
2019-04-11T18:07:50.041Z,43.29
2019-04-11T18:10:25.581Z,43.34
2019-04-11T18:13:00.447Z,43.42
2019-04-11T18:15:32.350Z,43.46
2019-04-11T18:18:05.428Z,43.91
2019-04-11T18:20:39.705Z,44.03
2019-04-11T18:23:12.236Z,44.20
2019-04-11T18:25:45.146Z,44.34
2019-04-11T18:28:21.632Z,44.52
2019-04-11T18:30:54.109Z,44.87
2019-04-11T18:33:26.544Z,44.56
2019-04-11T18:36:01.899Z,44.90
2019-04-11T18:38:34.125Z,44.68
2019-04-11T18:41:07.017Z,44.66
2019-04-11T18:43:39.776Z,44.81
2019-04-11T18:46:12.416Z,44.52
2019-04-11T18:48:44.985Z,44.65
2019-04-11T18:51:17.486Z,45.04
2019-04-11T18:53:50.200Z,45.29
2019-04-11T18:56:22.687Z,45.19
2019-04-11T18:58:55.545Z,45.81
2019-04-11T19:01:28.235Z,45.92
2019-04-11T19:04:00.896Z,45.70
2019-04-11T19:06:33.563Z,46.00
2019-04-11T19:09:13.832Z,46.31
2019-04-11T19:11:46.395Z,46.34
2019-04-11T19:14:19.576Z,46.62
2019-04-11T19:16:51.995Z,46.63
2019-04-11T19:19:27.309Z,46.65
2019-04-11T19:21:58.735Z,46.93
2019-04-11T19:30:39.419Z,47.26
2019-04-11T19:33:10.428Z,47.42
2019-04-11T19:35:42.295Z,48.94
2019-04-11T19:38:28.401Z,47.24
2019-04-11T19:41:00.401Z,47.31
2019-04-11T19:43:32.538Z,47.87
2019-04-11T19:46:04.712Z,47.45
2019-04-11T19:48:37.129Z,47.55
2019-04-11T19:51:10.917Z,47.50
2019-04-11T19:53:43.220Z,47.65
2019-04-11T19:56:20.198Z,47.74
2019-04-11T19:58:52.999Z,47.65
2019-04-11T20:01:25.040Z,47.62
2019-04-11T20:03:57.119Z,47.94
2019-04-11T20:06:29.180Z,47.62
2019-04-11T20:09:01.222Z,47.78
2019-04-11T20:11:34.930Z,47.63
2019-04-11T20:14:07.973Z,48.39
2019-04-11T20:16:42.029Z,47.85
2019-04-11T20:19:13.980Z,47.42
2019-04-11T20:21:45.980Z,47.87
2019-04-11T20:24:18.000Z,47.74
2019-04-11T20:26:50.354Z,47.73
2019-04-11T20:29:22.580Z,50.42
2019-04-11T20:31:54.670Z,47.74
2019-04-11T20:34:28.020Z,47.78
2019-04-11T20:37:00.210Z,47.69
2019-04-11T20:39:32.171Z,47.97
2019-04-11T20:42:04.740Z,48.21
2019-04-11T20:44:35.713Z,47.94
2019-04-11T20:47:07.870Z,49.74
2019-04-11T20:49:48.627Z,47.97
2019-04-11T20:52:20.708Z,47.98
2019-04-11T20:54:51.798Z,47.96
2019-04-11T20:57:25.852Z,49.91
2019-04-11T20:59:57.420Z,47.87
2019-04-11T21:02:30.392Z,48.66
2019-04-11T21:05:02.502Z,48.02
2019-04-11T21:07:34.990Z,48.10
2019-04-11T21:10:07.136Z,47.94
2019-04-11T21:12:39.660Z,47.93
2019-04-11T21:15:11.788Z,48.48
2019-04-11T21:17:43.758Z,49.28
2019-04-11T21:20:16.033Z,48.42
2019-04-11T21:22:49.519Z,48.28
2019-04-11T21:25:21.415Z,48.86
2019-04-11T21:27:53.477Z,49.24
2019-04-11T21:30:25.391Z,48.77
2019-04-11T21:32:57.385Z,48.49
2019-04-11T21:35:30.971Z,48.71
2019-04-11T21:38:03.217Z,48.31
2019-04-11T21:40:35.963Z,48.48
2019-04-11T21:43:08.448Z,49.09
2019-04-11T21:45:41.498Z,49.49
2019-04-11T21:48:13.549Z,49.00
2019-04-11T21:50:45.488Z,50.07
2019-04-11T21:53:17.528Z,49.30
2019-04-11T21:55:49.467Z,49.61
2019-04-11T21:58:21.498Z,49.85
2019-04-11T22:01:00.132Z,49.40
2019-04-11T22:03:32.518Z,49.77
2019-04-11T22:06:04.778Z,49.93
2019-04-11T22:08:35.806Z,49.75
2019-04-11T22:11:09.917Z,52.42
2019-04-11T22:13:41.697Z,49.79
2019-04-11T22:16:14.409Z,50.92
2019-04-11T22:18:46.432Z,49.75
2019-04-11T22:21:18.547Z,49.91
2019-04-11T22:23:50.538Z,50.91
2019-04-11T22:26:22.479Z,50.17
2019-04-11T22:28:55.218Z,50.72
2019-04-11T22:31:27.770Z,50.28
2019-04-11T22:34:10.448Z,50.02
2019-04-11T22:36:42.558Z,50.32
2019-04-11T22:39:14.668Z,50.26
2019-04-11T22:41:45.616Z,50.18
2019-04-11T22:44:17.337Z,52.82
2019-04-11T22:46:49.338Z,51.02
2019-04-11T22:49:21.768Z,50.55
2019-04-11T22:51:53.813Z,50.40
2019-04-11T22:54:26.003Z,50.47
2019-04-11T22:56:58.047Z,50.80
2019-04-11T22:59:30.238Z,50.60
2019-04-11T23:02:31.877Z,50.68
2019-04-11T23:05:03.687Z,53.11
2019-04-11T23:07:35.677Z,50.65
2019-04-11T23:12:46.638Z,50.93
2019-04-11T23:15:17.646Z,50.75
2019-04-11T23:17:49.467Z,53.58
2019-04-11T23:20:21.447Z,51.85
2019-04-11T23:22:53.680Z,51.25
2019-04-11T23:25:25.821Z,51.21
2019-04-11T23:27:57.810Z,51.60
2019-04-11T23:30:29.860Z,51.05
2019-04-11T23:33:01.970Z,51.36
2019-04-11T23:35:33.872Z,51.43
2019-04-11T23:38:05.879Z,51.92
2019-04-11T23:40:37.909Z,52.39
2019-04-11T23:43:09.942Z,51.47
2019-04-11T23:45:42.090Z,52.80
2019-04-11T23:48:17.819Z,52.16
2019-04-11T23:50:49.900Z,51.94
2019-04-11T23:53:22.039Z,52.09
2019-04-11T23:55:54.270Z,52.15
2019-04-11T23:58:25.309Z,52.28
